Time;durP1;ratioP1;P1;durP2;ratioP2;P2;SDS_P1;SDS_P2;PMS_P1;PMS_P2;Temp;Humidity;BMP_temperature;BMP_pressure;BME280_temperature;BME280_humidity;BME280_pressure;Samples;Min_cycle;Max_cycle;Signal;HPM_P1;HPM_P2
2020/12/03 00:01:12;;;;;;;2.53;1.60;;;10.00;75.40;;;;;;5062481;28;20209;-31
2020/12/03 00:03:47;;;;;;;2.35;2.08;;;9.90;78.30;;;;;;5063338;28;20195;-31
2020/12/03 00:06:20;;;;;;;2.45;1.73;;;9.90;76.30;;;;;;5052277;28;20203;-35
2020/12/03 00:08:53;;;;;;;1.63;1.55;;;9.90;76.30;;;;;;5049919;28;20285;-31
2020/12/03 00:11:26;;;;;;;4.38;1.88;;;9.80;76.20;;;;;;5051998;28;20304;-34
2020/12/03 00:13:57;;;;;;;1.65;1.55;;;9.70;76.80;;;;;;5051528;28;20214;-36
2020/12/03 00:16:30;;;;;;;6.05;1.90;;;9.70;77.60;;;;;;5051525;28;20239;-31
2020/12/03 00:19:01;;;;;;;2.28;1.80;;;9.60;77.60;;;;;;5048694;28;20559;-37
2020/12/03 00:21:35;;;;;;;1.98;1.60;;;9.60;77.50;;;;;;5050696;28;20643;-31
2020/12/03 00:24:06;;;;;;;2.42;1.67;;;9.50;77.70;;;;;;5051127;28;20215;-31
2020/12/03 00:26:38;;;;;;;1.85;1.50;;;9.50;78.00;;;;;;5059841;28;20194;-32
2020/12/03 00:29:08;;;;;;;1.95;1.85;;;9.40;78.20;;;;;;5048289;28;20207;-34
2020/12/03 00:31:39;;;;;;;2.37;1.70;;;9.40;77.90;;;;;;5054901;28;20440;-38
2020/12/03 00:34:10;;;;;;;2.00;1.90;;;9.40;77.50;;;;;;5060650;28;21005;-33
2020/12/03 00:36:40;;;;;;;3.40;2.00;;;9.40;77.10;;;;;;5058636;28;20197;-31
2020/12/03 00:39:12;;;;;;;1.98;1.77;;;9.40;78.10;;;;;;5074251;28;20609;-32
2020/12/03 00:41:49;;;;;;;2.50;2.00;;;9.30;78.50;;;;;;5060744;28;20252;-35
2020/12/03 00:44:20;;;;;;;2.30;1.88;;;9.30;78.80;;;;;;5054186;28;20208;-29
2020/12/03 00:46:52;;;;;;;3.15;1.90;;;9.30;78.00;;;;;;5050148;28;20199;-38
2020/12/03 00:49:23;;;;;;;2.35;1.98;;;9.30;78.60;;;;;;5051929;28;20201;-33
2020/12/03 00:51:54;;;;;;;2.65;2.03;;;9.20;79.00;;;;;;5056774;28;20210;-32
2020/12/03 00:54:24;;;;;;;1.95;1.85;;;9.10;79.00;;;;;;5057083;28;20866;-35
2020/12/03 00:56:55;;;;;;;3.55;2.00;;;9.10;78.70;;;;;;5066998;28;20610;-37
2020/12/03 00:59:26;;;;;;;1.95;1.80;;;9.10;80.10;;;;;;5075189;28;20204;-34
2020/12/03 01:01:57;;;;;;;2.80;2.00;;;9.00;79.90;;;;;;5074532;28;20192;-36
2020/12/03 01:04:27;;;;;;;3.53;1.95;;;9.00;79.90;;;;;;5064407;28;20209;-33
2020/12/03 01:06:57;;;;;;;2.10;1.90;;;9.00;79.90;;;;;;5081346;28;20762;-35
2020/12/03 01:09:27;;;;;;;3.00;2.72;;;9.00;80.10;;;;;;5072843;28;20200;-35
2020/12/03 01:11:59;;;;;;;5.10;2.53;;;8.90;80.30;;;;;;5078715;28;20598;-34
2020/12/03 01:14:29;;;;;;;3.13;2.72;;;8.90;80.10;;;;;;5048119;28;20700;-32
2020/12/03 01:16:59;;;;;;;2.08;1.92;;;8.90;80.00;;;;;;5059673;28;20200;-35
2020/12/03 01:19:30;;;;;;;2.40;2.20;;;8.90;80.30;;;;;;5076673;28;20193;-35
2020/12/03 01:22:00;;;;;;;2.05;1.80;;;8.90;79.80;;;;;;5078452;28;20201;-32
2020/12/03 01:24:30;;;;;;;2.15;1.73;;;8.90;80.00;;;;;;5064579;28;20202;-35
2020/12/03 01:27:02;;;;;;;2.25;2.05;;;8.90;80.30;;;;;;5072144;28;20209;-34
2020/12/03 01:29:32;;;;;;;2.05;1.90;;;8.90;80.20;;;;;;5072860;28;20194;-32
2020/12/03 01:32:02;;;;;;;1.77;1.67;;;8.90;80.30;;;;;;5076029;28;20660;-30
2020/12/03 01:34:32;;;;;;;2.45;1.95;;;8.90;82.20;;;;;;5079243;28;20242;-29
2020/12/03 01:37:02;;;;;;;2.60;2.15;;;8.80;80.90;;;;;;5083359;28;20212;-31
2020/12/03 01:39:32;;;;;;;2.97;1.90;;;8.70;81.30;;;;;;5068406;28;20200;-29
2020/12/03 01:42:04;;;;;;;2.42;1.92;;;8.70;81.20;;;;;;5080529;28;20225;-28
2020/12/03 01:44:43;;;;;;;3.67;2.00;;;8.70;80.90;;;;;;5052428;28;20685;-31
2020/12/03 01:47:22;;;;;;;2.10;2.00;;;8.70;80.90;;;;;;5058357;28;20201;-29
2020/12/03 01:49:53;;;;;;;2.20;2.00;;;8.70;81.50;;;;;;5061762;28;20206;-33
2020/12/03 01:52:24;;;;;;;2.58;2.15;;;8.70;81.60;;;;;;5073322;28;20582;-32
2020/12/03 01:54:54;;;;;;;2.65;2.10;;;8.60;82.20;;;;;;5065763;28;20271;-32
2020/12/03 01:57:56;;;;;;;2.67;2.45;;;8.60;81.30;;;;;;5065023;28;20339;-33
2020/12/03 02:00:27;;;;;;;2.70;2.03;;;8.60;81.30;;;;;;5060080;28;20250;-32
2020/12/03 02:02:57;;;;;;;1.90;1.80;;;8.60;82.30;;;;;;5065508;28;20194;-31
2020/12/03 02:05:29;;;;;;;7.28;1.98;;;8.50;82.30;;;;;;5069309;28;20208;-31
2020/12/03 02:07:59;;;;;;;2.95;2.25;;;8.50;82.90;;;;;;5088308;28;20188;-33
2020/12/03 02:10:30;;;;;;;3.05;2.63;;;8.50;82.60;;;;;;5087664;28;20686;-30
2020/12/03 02:13:02;;;;;;;2.42;2.22;;;8.50;82.80;;;;;;5069894;28;20254;-28
2020/12/03 02:15:36;;;;;;;2.20;2.00;;;8.50;82.70;;;;;;5087781;28;20263;-32
2020/12/03 02:18:08;;;;;;;2.95;2.50;;;8.50;82.70;;;;;;5056332;28;20754;-28
2020/12/03 02:20:39;;;;;;;1.90;1.80;;;8.50;83.10;;;;;;5070360;28;20538;-29
2020/12/03 02:23:16;;;;;;;2.65;2.42;;;8.50;81.90;;;;;;5072538;28;20197;-31
2020/12/03 02:25:46;;;;;;;3.20;2.90;;;8.50;82.10;;;;;;5071441;28;20208;-28
2020/12/03 02:28:17;;;;;;;2.35;2.15;;;8.50;82.10;;;;;;5070775;28;20200;-28
2020/12/03 02:30:47;;;;;;;2.55;1.90;;;8.50;81.00;;;;;;5069822;28;20557;-31
2020/12/03 02:33:17;;;;;;;2.25;1.90;;;8.50;81.70;;;;;;5070121;28;20247;-35
2020/12/03 02:35:48;;;;;;;2.75;2.50;;;8.50;82.60;;;;;;5076412;28;20252;-31
2020/12/03 02:38:18;;;;;;;2.33;2.13;;;8.40;82.90;;;;;;5079978;28;20185;-29
2020/12/03 02:40:49;;;;;;;2.42;2.22;;;8.40;83.80;;;;;;5084596;28;20246;-30
2020/12/03 02:43:19;;;;;;;2.78;2.40;;;8.30;83.20;;;;;;5089796;28;20636;-35
2020/12/03 02:45:50;;;;;;;2.65;2.45;;;8.40;83.20;;;;;;5084449;28;20189;-34
2020/12/03 02:48:20;;;;;;;2.65;2.33;;;8.30;82.20;;;;;;5069278;28;20515;-33
2020/12/03 02:50:51;;;;;;;2.35;2.00;;;8.40;83.00;;;;;;5070916;28;20201;-34
2020/12/03 02:53:21;;;;;;;2.10;1.90;;;8.40;82.90;;;;;;5068472;28;20186;-32
2020/12/03 02:55:52;;;;;;;3.22;2.60;;;8.40;82.50;;;;;;5075487;28;20224;-31
2020/12/03 02:58:22;;;;;;;2.20;2.00;;;8.30;82.90;;;;;;5089790;28;20204;-32
2020/12/03 03:00:52;;;;;;;2.40;2.20;;;8.30;83.10;;;;;;5077648;28;20205;-35
2020/12/03 03:03:22;;;;;;;2.53;2.33;;;8.30;83.40;;;;;;5069211;28;20274;-30
2020/12/03 03:05:54;;;;;;;2.63;2.28;;;8.30;83.40;;;;;;5058577;28;20192;-32
2020/12/03 03:08:24;;;;;;;2.88;2.53;;;8.20;84.30;;;;;;5085364;28;20232;-32
2020/12/03 03:10:54;;;;;;;2.42;2.22;;;8.20;84.00;;;;;;5080865;28;20193;-31
2020/12/03 03:13:25;;;;;;;3.83;2.33;;;8.20;83.70;;;;;;5069754;28;20246;-29
2020/12/03 03:15:55;;;;;;;2.15;1.95;;;8.20;84.00;;;;;;5069255;28;20641;-37
2020/12/03 03:18:26;;;;;;;2.67;2.42;;;8.20;84.20;;;;;;5060186;28;20201;-35
2020/12/03 03:20:57;;;;;;;2.63;2.40;;;8.10;84.80;;;;;;5085215;28;20192;-33
2020/12/03 03:23:27;;;;;;;2.60;2.40;;;8.10;85.90;;;;;;5085800;28;20274;-32
2020/12/03 03:25:57;;;;;;;5.60;2.30;;;8.10;85.10;;;;;;5088753;28;20261;-35
2020/12/03 03:28:27;;;;;;;3.08;2.28;;;8.20;88.40;;;;;;5089208;28;20246;-35
2020/12/03 03:30:58;;;;;;;2.65;2.42;;;8.10;86.00;;;;;;5085067;28;20209;-34
2020/12/03 03:33:28;;;;;;;2.90;2.58;;;8.10;85.50;;;;;;5072806;28;20560;-37
2020/12/03 03:35:59;;;;;;;2.33;2.20;;;8.00;86.10;;;;;;5075704;28;20220;-31
2020/12/03 03:38:29;;;;;;;4.22;2.30;;;8.00;85.50;;;;;;5088359;28;20201;-35
2020/12/03 03:41:00;;;;;;;3.15;2.10;;;8.00;85.40;;;;;;5074277;28;20205;-33
2020/12/03 03:43:30;;;;;;;3.10;2.90;;;8.00;85.70;;;;;;5069697;28;20236;-35
2020/12/03 03:46:00;;;;;;;3.47;2.95;;;8.00;86.40;;;;;;5069744;28;20224;-29
2020/12/03 03:48:30;;;;;;;2.95;2.65;;;7.90;86.30;;;;;;5082922;28;20192;-30
2020/12/03 03:51:02;;;;;;;2.47;2.28;;;8.00;86.40;;;;;;5072554;28;20262;-34
2020/12/03 03:53:32;;;;;;;2.80;2.60;;;8.00;85.60;;;;;;5057898;28;20247;-34
2020/12/03 03:56:02;;;;;;;3.10;2.80;;;7.90;86.30;;;;;;5067657;28;20247;-31
2020/12/03 03:58:32;;;;;;;2.55;2.30;;;7.90;86.80;;;;;;5080272;28;20242;-30
2020/12/03 04:01:05;;;;;;;3.15;2.80;;;7.90;87.10;;;;;;5087517;28;20209;-32
2020/12/03 04:03:35;;;;;;;2.42;2.30;;;7.80;87.30;;;;;;5078034;28;20586;-32
2020/12/03 04:06:07;;;;;;;3.33;2.60;;;7.80;87.10;;;;;;5077371;28;20274;-34
2020/12/03 04:08:37;;;;;;;4.03;3.67;;;7.90;88.10;;;;;;5069452;28;20204;-33
2020/12/03 04:11:07;;;;;;;3.95;2.75;;;7.80;89.20;;;;;;5071493;28;20258;-33
2020/12/03 04:13:37;;;;;;;3.13;2.83;;;7.80;87.30;;;;;;5070457;28;20270;-32
2020/12/03 04:16:08;;;;;;;3.28;2.53;;;7.80;87.30;;;;;;5079400;28;20283;-33
2020/12/03 04:18:38;;;;;;;4.60;3.30;;;7.70;88.20;;;;;;5083041;28;20201;-33
2020/12/03 04:21:11;;;;;;;3.30;3.00;;;7.70;88.20;;;;;;5071214;28;20523;-35
2020/12/03 04:23:41;;;;;;;3.53;3.22;;;7.70;87.70;;;;;;5071084;28;20750;-33
2020/12/03 04:26:13;;;;;;;2.83;2.63;;;7.70;88.30;;;;;;5074649;28;20197;-35
2020/12/03 04:28:43;;;;;;;3.25;3.05;;;7.70;87.80;;;;;;5083411;28;20716;-33
2020/12/03 04:31:13;;;;;;;2.45;2.25;;;7.70;88.20;;;;;;5076157;28;20293;-35
2020/12/03 04:33:44;;;;;;;3.47;2.60;;;7.80;87.40;;;;;;5073171;28;20203;-33
2020/12/03 04:36:15;;;;;;;3.90;2.88;;;7.80;87.20;;;;;;5064757;28;20224;-31
2020/12/03 04:38:46;;;;;;;2.95;2.65;;;7.80;86.60;;;;;;5065959;28;20270;-34
2020/12/03 04:41:18;;;;;;;2.90;2.42;;;7.80;87.80;;;;;;5059092;28;20209;-38
2020/12/03 04:43:53;;;;;;;3.88;3.40;;;7.80;88.20;;;;;;5074420;28;20224;-34
2020/12/03 04:46:30;;;;;;;3.08;2.88;;;7.70;88.00;;;;;;5088988;28;20222;-35
2020/12/03 04:49:26;;;;;;;2.80;2.60;;;7.70;87.70;;;;;;5087359;28;20184;-33
2020/12/03 04:52:25;;;;;;;3.10;2.80;;;7.70;88.10;;;;;;5063054;28;20181;-32
2020/12/03 04:55:07;;;;;;;5.43;2.85;;;7.70;88.50;;;;;;5084152;28;20277;-32
2020/12/03 04:57:42;;;;;;;3.70;3.40;;;7.60;88.20;;;;;;5082544;28;20189;-31
2020/12/03 05:00:22;;;;;;;4.22;3.40;;;7.70;88.50;;;;;;5072576;28;20322;-30
2020/12/03 05:03:28;;;;;;;3.22;2.92;;;7.70;89.70;;;;;;5072705;28;20196;-34
2020/12/03 05:06:14;;;;;;;5.32;2.95;;;7.60;89.50;;;;;;5064617;28;20242;-31
2020/12/03 05:08:54;;;;;;;2.92;2.72;;;7.60;89.40;;;;;;5071906;28;20594;-28
2020/12/03 05:11:39;;;;;;;3.50;3.22;;;7.60;89.30;;;;;;5089507;28;20677;-30
2020/12/03 05:14:22;;;;;;;3.08;2.78;;;7.50;89.70;;;;;;5081252;28;20196;-29
2020/12/03 05:17:02;;;;;;;3.53;3.08;;;7.50;89.10;;;;;;5081444;28;20678;-31
2020/12/03 05:19:40;;;;;;;5.03;3.35;;;7.50;89.90;;;;;;5071989;28;20193;-33
2020/12/03 05:22:19;;;;;;;3.65;3.15;;;7.50;90.00;;;;;;5069387;28;20208;-31
2020/12/03 05:24:51;;;;;;;3.40;3.10;;;7.50;90.00;;;;;;5080442;28;20189;-34
2020/12/03 05:27:25;;;;;;;4.90;3.10;;;7.50;90.10;;;;;;5079254;28;20212;-34
2020/12/03 05:29:57;;;;;;;3.35;3.05;;;7.50;90.00;;;;;;5091478;28;20633;-34
2020/12/03 05:32:27;;;;;;;3.60;3.30;;;7.50;90.00;;;;;;5070013;28;20192;-34
2020/12/03 05:34:57;;;;;;;3.55;3.03;;;7.50;89.60;;;;;;5075635;28;20640;-30
2020/12/03 05:37:29;;;;;;;6.13;3.45;;;7.50;90.10;;;;;;5062293;28;20190;-33
2020/12/03 05:40:01;;;;;;;2.90;2.70;;;7.50;89.40;;;;;;5078685;28;20201;-34
2020/12/03 05:42:33;;;;;;;4.00;3.30;;;7.50;89.60;;;;;;5068510;28;20240;-34
2020/12/03 05:45:11;;;;;;;5.13;3.35;;;7.40;90.10;;;;;;5081081;28;20193;-34
2020/12/03 05:47:45;;;;;;;4.18;2.80;;;7.40;90.10;;;;;;5071571;28;20193;-32
2020/12/03 05:50:30;;;;;;;3.35;3.08;;;7.40;90.30;;;;;;5066845;28;20192;-34
2020/12/03 05:53:04;;;;;;;3.45;3.15;;;7.40;90.40;;;;;;5072180;28;20186;-27
2020/12/03 05:55:36;;;;;;;4.15;3.85;;;7.40;90.50;;;;;;5080994;28;20353;-33
2020/12/03 05:58:20;;;;;;;3.95;3.53;;;7.30;90.40;;;;;;5077498;28;20216;-32
2020/12/03 06:00:52;;;;;;;3.58;3.28;;;7.30;90.80;;;;;;5071603;28;20189;-31
2020/12/03 06:03:44;;;;;;;3.75;3.20;;;7.20;90.80;;;;;;5072341;28;20609;-31
2020/12/03 06:06:47;;;;;;;3.83;3.45;;;7.30;90.60;;;;;;5068165;28;20206;-31
2020/12/03 06:09:43;;;;;;;3.88;3.58;;;7.30;90.70;;;;;;5068965;28;20197;-33
2020/12/03 06:12:30;;;;;;;3.45;3.15;;;7.20;90.50;;;;;;5065650;28;20201;-34
2020/12/03 06:15:14;;;;;;;4.13;3.60;;;7.20;90.80;;;;;;5055023;28;20220;-34
2020/12/03 06:18:19;;;;;;;4.35;3.85;;;7.20;90.80;;;;;;5072735;28;20221;-32
2020/12/03 06:21:00;;;;;;;3.38;2.95;;;7.20;90.60;;;;;;5055853;28;20295;-32
2020/12/03 06:23:55;;;;;;;4.32;3.92;;;7.20;90.70;;;;;;5083056;28;20195;-32
2020/12/03 06:26:43;;;;;;;3.50;3.20;;;7.20;90.80;;;;;;5079804;28;20190;-33
2020/12/03 06:29:27;;;;;;;3.70;3.10;;;7.10;90.90;;;;;;5091087;28;20207;-35
2020/12/03 06:32:25;;;;;;;3.80;3.50;;;7.20;91.20;;;;;;5076899;28;20204;-30
2020/12/03 06:35:01;;;;;;;3.50;3.20;;;7.10;91.10;;;;;;5075693;28;20189;-27
2020/12/03 06:37:42;;;;;;;4.20;3.80;;;7.10;91.20;;;;;;5084060;28;20701;-30
2020/12/03 06:40:17;;;;;;;4.85;4.20;;;7.10;91.20;;;;;;5088690;28;20188;-32
2020/12/03 06:42:52;;;;;;;3.55;3.25;;;7.10;91.40;;;;;;5087514;28;20232;-29
2020/12/03 06:45:33;;;;;;;3.75;3.30;;;7.10;91.70;;;;;;5085520;28;20250;-33
2020/12/03 06:48:38;;;;;;;4.20;3.10;;;7.00;91.30;;;;;;5090438;28;20189;-35
2020/12/03 06:51:32;;;;;;;3.65;3.35;;;7.00;91.40;;;;;;5084998;28;20192;-33
2020/12/03 06:54:41;;;;;;;3.70;3.40;;;7.00;91.50;;;;;;5073879;28;20622;-30
2020/12/03 06:57:48;;;;;;;3.95;3.65;;;7.00;91.70;;;;;;5060817;28;20220;-33
2020/12/03 07:00:39;;;;;;;3.83;3.53;;;7.00;91.70;;;;;;5075658;28;20203;-31
2020/12/03 07:03:50;;;;;;;5.15;3.50;;;7.00;91.80;;;;;;5079432;28;20197;-30
2020/12/03 07:06:55;;;;;;;4.32;3.42;;;7.00;91.70;;;;;;5046515;28;20200;-34
2020/12/03 07:09:55;;;;;;;5.80;3.45;;;7.00;91.80;;;;;;5059743;28;20232;-34
2020/12/03 07:12:53;;;;;;;4.45;3.78;;;6.90;92.30;;;;;;5087049;28;20189;-31
2020/12/03 07:15:45;;;;;;;4.40;4.00;;;6.90;92.20;;;;;;5078113;28;20315;-35
2020/12/03 07:18:56;;;;;;;4.53;3.45;;;6.80;92.00;;;;;;5078511;28;20353;-29
2020/12/03 07:21:56;;;;;;;5.78;3.88;;;6.90;92.10;;;;;;5085360;28;20196;-33
2020/12/03 07:24:30;;;;;;;5.07;3.70;;;6.90;92.00;;;;;;5077118;28;20523;-31
2020/12/03 07:27:23;;;;;;;4.25;3.85;;;6.90;92.00;;;;;;5071998;28;20182;-31
2020/12/03 07:29:58;;;;;;;3.80;3.50;;;6.90;92.20;;;;;;5072641;28;20204;-28
2020/12/03 07:32:48;;;;;;;5.68;3.78;;;6.90;92.30;;;;;;5069946;28;20265;-31
2020/12/03 07:35:32;;;;;;;4.32;3.92;;;6.80;92.30;;;;;;5081460;28;20258;-32
2020/12/03 07:38:12;;;;;;;5.60;4.30;;;6.80;92.40;;;;;;5072299;28;20189;-34
2020/12/03 07:40:43;;;;;;;4.45;3.38;;;6.90;92.80;;;;;;5089779;28;20188;-32
2020/12/03 07:43:20;;;;;;;5.90;3.80;;;6.80;92.80;;;;;;5088493;28;20749;-34
2020/12/03 07:45:52;;;;;;;4.05;3.65;;;6.80;92.80;;;;;;5083846;28;20223;-32
2020/12/03 07:48:43;;;;;;;4.38;3.50;;;6.70;93.20;;;;;;5070268;28;20663;-29
2020/12/03 07:51:15;;;;;;;5.35;3.75;;;6.70;93.00;;;;;;5072097;28;20201;-33
2020/12/03 07:53:46;;;;;;;4.03;3.72;;;6.60;93.30;;;;;;5080939;28;20705;-30
2020/12/03 07:56:38;;;;;;;4.07;3.22;;;6.70;93.30;;;;;;5072689;28;20286;-31
2020/12/03 07:59:33;;;;;;;3.55;3.25;;;6.60;93.80;;;;;;5085003;28;20201;-30
2020/12/03 08:02:25;;;;;;;4.50;3.80;;;6.60;93.60;;;;;;5055449;28;20185;-33
2020/12/03 08:04:55;;;;;;;4.20;3.80;;;6.60;93.90;;;;;;5075493;28;20204;-32
2020/12/03 08:07:36;;;;;;;3.63;3.33;;;6.50;93.80;;;;;;5059279;28;20239;-34
2020/12/03 08:10:34;;;;;;;3.42;3.13;;;6.60;93.80;;;;;;5082894;28;20233;-30
2020/12/03 08:13:23;;;;;;;3.75;3.03;;;6.60;94.30;;;;;;5089423;28;20614;-32
2020/12/03 08:16:00;;;;;;;3.95;3.55;;;6.60;94.50;;;;;;5084453;28;20221;-30
2020/12/03 08:18:42;;;;;;;3.63;3.33;;;6.50;94.70;;;;;;5072611;28;20526;-35
2020/12/03 08:21:14;;;;;;;5.47;3.47;;;6.60;94.10;;;;;;5049629;28;20194;-35
2020/12/03 08:23:52;;;;;;;3.75;3.45;;;6.60;94.30;;;;;;5069619;28;20193;-31
2020/12/03 08:26:27;;;;;;;3.30;3.00;;;6.60;94.30;;;;;;5088909;28;20220;-33
2020/12/03 08:28:57;;;;;;;4.57;3.70;;;6.60;94.30;;;;;;5071585;28;20193;-32
2020/12/03 08:31:26;;;;;;;4.68;3.60;;;6.60;94.20;;;;;;5073433;28;20235;-30
2020/12/03 08:33:57;;;;;;;3.35;3.05;;;6.60;94.60;;;;;;5073571;28;20262;-34
2020/12/03 08:36:28;;;;;;;4.13;3.72;;;6.60;94.70;;;;;;5072388;28;20224;-33
2020/12/03 08:38:58;;;;;;;3.65;3.10;;;6.60;94.20;;;;;;5081553;28;20193;-33
2020/12/03 08:41:28;;;;;;;3.65;3.35;;;6.60;94.20;;;;;;5092668;28;20546;-31
2020/12/03 08:44:03;;;;;;;3.58;3.05;;;6.70;94.10;;;;;;5077878;28;20344;-30
2020/12/03 08:46:35;;;;;;;3.35;3.05;;;6.70;94.20;;;;;;5073886;28;20188;-32
2020/12/03 08:49:11;;;;;;;3.35;3.05;;;6.70;94.10;;;;;;5080500;28;20193;-37
2020/12/03 08:51:50;;;;;;;5.05;3.35;;;6.70;94.30;;;;;;5073227;28;20193;-33
2020/12/03 08:54:27;;;;;;;3.05;2.85;;;6.70;94.30;;;;;;5072465;28;20189;-33
2020/12/03 08:56:59;;;;;;;3.63;3.33;;;6.70;94.50;;;;;;5083557;28;20647;-30
2020/12/03 08:59:34;;;;;;;6.20;3.10;;;6.80;94.40;;;;;;5081100;28;20512;-30
2020/12/03 09:02:10;;;;;;;3.67;3.10;;;6.80;94.50;;;;;;5074600;28;20193;-34
2020/12/03 09:04:46;;;;;;;4.13;3.40;;;6.90;94.20;;;;;;5073049;28;20185;-35
2020/12/03 09:07:19;;;;;;;5.03;3.30;;;6.90;94.30;;;;;;5088981;28;20207;-31
2020/12/03 09:09:51;;;;;;;3.60;3.30;;;6.80;94.40;;;;;;5073376;28;20606;-33
2020/12/03 09:12:24;;;;;;;3.10;2.90;;;6.80;94.30;;;;;;5079762;28;20265;-30
2020/12/03 09:14:57;;;;;;;3.38;3.17;;;6.90;94.70;;;;;;5090764;28;20216;-31
2020/12/03 09:17:30;;;;;;;3.53;3.00;;;6.90;94.50;;;;;;5083298;28;20209;-31
2020/12/03 09:20:06;;;;;;;3.63;3.33;;;6.90;95.00;;;;;;5092061;28;20270;-32
2020/12/03 09:22:37;;;;;;;4.78;2.90;;;6.90;95.00;;;;;;5083154;28;20193;-32
2020/12/03 09:25:08;;;;;;;5.60;3.40;;;6.90;94.70;;;;;;5075497;28;20193;-36
2020/12/03 09:27:43;;;;;;;3.30;3.10;;;6.90;95.10;;;;;;5082846;28;20201;-35
2020/12/03 09:30:21;;;;;;;3.30;3.00;;;6.80;95.00;;;;;;5072239;28;20648;-35
2020/12/03 09:32:56;;;;;;;4.40;3.25;;;6.80;94.80;;;;;;5077339;28;20194;-33
2020/12/03 09:35:29;;;;;;;5.05;2.92;;;6.80;95.20;;;;;;5088383;28;20261;-31
2020/12/03 09:38:02;;;;;;;3.80;3.45;;;6.80;95.30;;;;;;5072912;28;20212;-30
2020/12/03 09:40:34;;;;;;;4.15;3.47;;;6.80;95.50;;;;;;5076794;28;20259;-29
2020/12/03 09:43:04;;;;;;;3.88;3.08;;;6.80;95.70;;;;;;5071768;28;20278;-30
2020/12/03 09:45:38;;;;;;;4.28;3.30;;;6.80;95.80;;;;;;5086590;28;20192;-29
2020/12/03 09:48:15;;;;;;;5.05;3.00;;;6.80;95.70;;;;;;5081216;28;20571;-28
2020/12/03 09:50:49;;;;;;;4.22;3.05;;;6.80;95.50;;;;;;5078969;28;20607;-34
2020/12/03 09:53:21;;;;;;;3.08;2.80;;;6.80;95.60;;;;;;5080914;28;20505;-33
2020/12/03 09:55:51;;;;;;;3.20;2.90;;;6.80;95.50;;;;;;5076163;28;20232;-31
2020/12/03 09:58:22;;;;;;;6.03;3.40;;;6.80;95.50;;;;;;5083528;28;20758;-34
2020/12/03 10:00:53;;;;;;;3.22;2.80;;;6.80;96.20;;;;;;5079541;28;20254;-35
2020/12/03 10:03:54;;;;;;;4.10;3.60;;;6.90;96.10;;;;;;5091156;28;20599;-31
2020/12/03 10:06:32;;;;;;;3.17;2.95;;;6.90;95.50;;;;;;5063865;28;20201;-32
2020/12/03 10:09:22;;;;;;;3.30;3.00;;;6.90;95.50;;;;;;5088329;28;20192;-35
2020/12/03 10:12:27;;;;;;;7.00;3.80;;;6.90;95.80;;;;;;5089039;28;20668;-35
2020/12/03 10:15:17;;;;;;;3.90;3.50;;;6.90;96.20;;;;;;5058121;28;20288;-31
2020/12/03 10:18:08;;;;;;;3.40;3.00;;;6.90;95.80;;;;;;5073026;28;20217;-36
2020/12/03 10:20:38;;;;;;;3.40;3.10;;;7.00;96.10;;;;;;5082286;28;20235;-31
2020/12/03 10:23:27;;;;;;;4.07;2.97;;;7.00;95.50;;;;;;5070702;28;20194;-29
2020/12/03 10:26:14;;;;;;;3.85;3.03;;;7.00;95.10;;;;;;5078350;28;20196;-32
2020/12/03 10:28:50;;;;;;;3.58;3.15;;;7.10;95.20;;;;;;5090329;28;20195;-35
2020/12/03 10:31:33;;;;;;;3.50;3.20;;;7.10;94.90;;;;;;5081653;28;20194;-35
2020/12/03 10:34:05;;;;;;;3.70;3.40;;;7.10;95.10;;;;;;5079169;28;20253;-33
2020/12/03 10:36:50;;;;;;;3.97;3.58;;;7.10;95.20;;;;;;5073651;28;20216;-32
2020/12/03 10:39:24;;;;;;;4.55;3.63;;;7.10;95.50;;;;;;5058256;28;20270;-30
2020/12/03 10:41:55;;;;;;;4.50;3.50;;;7.10;94.90;;;;;;5082013;28;20270;-36
2020/12/03 10:44:28;;;;;;;3.67;3.38;;;7.10;94.70;;;;;;5073914;28;20606;-33
2020/12/03 10:47:03;;;;;;;4.50;3.33;;;7.10;94.80;;;;;;5080696;28;20333;-31
2020/12/03 10:49:38;;;;;;;3.42;3.20;;;7.10;94.80;;;;;;5081478;28;20189;-31
2020/12/03 10:52:10;;;;;;;4.82;3.30;;;7.10;94.60;;;;;;5074452;28;20188;-36
2020/12/03 10:54:42;;;;;;;4.32;3.83;;;7.10;94.30;;;;;;5071482;28;20193;-35
2020/12/03 10:57:21;;;;;;;3.55;3.25;;;7.20;94.70;;;;;;5071058;28;20263;-30
2020/12/03 10:59:52;;;;;;;4.07;3.40;;;7.10;94.70;;;;;;5081638;28;20243;-31
2020/12/03 11:02:36;;;;;;;4.07;3.67;;;7.10;94.80;;;;;;5075346;28;20679;-28
2020/12/03 11:05:09;;;;;;;4.40;2.90;;;7.10;94.80;;;;;;5073848;28;20258;-31
2020/12/03 11:07:40;;;;;;;3.72;3.53;;;7.10;94.50;;;;;;5080820;28;20335;-31
2020/12/03 11:10:15;;;;;;;3.60;3.30;;;7.20;94.40;;;;;;5082087;28;20591;-32
2020/12/03 11:12:46;;;;;;;3.88;3.47;;;7.20;94.50;;;;;;5082378;28;20207;-29
2020/12/03 11:15:20;;;;;;;3.55;3.25;;;7.20;94.50;;;;;;5084439;28;20217;-31
2020/12/03 11:18:02;;;;;;;5.80;3.58;;;7.20;94.50;;;;;;5059926;28;20278;-34
2020/12/03 11:21:04;;;;;;;3.50;3.20;;;7.10;94.60;;;;;;5084064;28;20646;-29
2020/12/03 11:23:44;;;;;;;3.63;3.33;;;7.00;95.10;;;;;;5075521;28;20261;-37
2020/12/03 11:26:15;;;;;;;3.40;3.10;;;7.00;94.70;;;;;;5074934;28;20192;-34
2020/12/03 11:28:46;;;;;;;4.72;3.85;;;7.00;94.60;;;;;;5086688;28;20196;-37
2020/12/03 11:31:32;;;;;;;4.47;3.45;;;7.00;94.80;;;;;;5060302;28;20234;-35
2020/12/03 11:34:02;;;;;;;4.03;3.55;;;6.90;94.60;;;;;;5070147;28;20238;-33
2020/12/03 11:36:38;;;;;;;3.92;3.50;;;6.90;94.70;;;;;;5086415;28;20274;-32
2020/12/03 11:39:10;;;;;;;3.53;3.33;;;6.90;94.80;;;;;;5085930;28;20192;-34
2020/12/03 11:41:51;;;;;;;4.82;3.58;;;6.90;95.00;;;;;;5080631;28;20254;-34
2020/12/03 11:50:17;;;;;;;4.00;3.60;;;7.00;94.60;;;;;;5040394;28;20287;-33
2020/12/03 11:52:48;;;;;;;3.80;3.50;;;6.90;94.60;;;;;;5074683;28;20217;-29
2020/12/03 11:55:20;;;;;;;3.95;3.65;;;6.90;94.70;;;;;;5073894;28;20189;-30
2020/12/03 11:57:52;;;;;;;5.10;4.32;;;6.90;94.60;;;;;;5073079;28;20209;-30
2020/12/03 12:00:23;;;;;;;5.05;3.78;;;6.90;94.70;;;;;;5077413;28;20184;-32
2020/12/03 12:02:54;;;;;;;4.35;3.65;;;6.90;94.40;;;;;;5088511;28;20189;-31
2020/12/03 12:05:32;;;;;;;6.07;3.70;;;6.90;94.90;;;;;;5078091;28;20280;-32
2020/12/03 12:08:12;;;;;;;4.55;4.13;;;6.80;95.20;;;;;;5077214;28;20190;-32
2020/12/03 12:10:47;;;;;;;4.10;3.75;;;6.70;95.40;;;;;;5075864;28;20537;-33
2020/12/03 12:13:19;;;;;;;3.75;3.45;;;6.70;95.40;;;;;;5070727;28;20185;-34
2020/12/03 12:15:49;;;;;;;3.80;3.50;;;6.70;95.40;;;;;;5076103;28;20239;-27
2020/12/03 12:18:19;;;;;;;3.50;3.20;;;6.60;95.40;;;;;;5074015;28;20216;-31
2020/12/03 12:20:50;;;;;;;3.50;3.20;;;6.60;95.60;;;;;;5082897;28;20564;-34
2020/12/03 12:23:20;;;;;;;5.60;4.43;;;6.60;95.50;;;;;;5077168;28;20628;-28
2020/12/03 12:25:50;;;;;;;4.20;3.80;;;6.60;95.30;;;;;;5075823;28;20197;-31
2020/12/03 12:28:21;;;;;;;4.43;4.03;;;6.70;95.00;;;;;;5076469;28;20212;-31
2020/12/03 12:30:52;;;;;;;4.85;3.67;;;6.70;95.30;;;;;;5085546;28;20254;-37
2020/12/03 12:33:23;;;;;;;5.35;3.65;;;6.60;95.40;;;;;;5069603;28;20209;-32
2020/12/03 12:35:54;;;;;;;3.80;3.50;;;6.60;95.60;;;;;;5085553;28;20545;-30
2020/12/03 12:38:25;;;;;;;5.95;3.80;;;6.50;95.80;;;;;;5075646;28;20314;-31
2020/12/03 12:40:55;;;;;;;4.15;3.80;;;6.60;95.70;;;;;;5069545;28;20227;-34
2020/12/03 12:43:27;;;;;;;4.30;3.90;;;6.60;95.80;;;;;;5070397;28;20236;-28
2020/12/03 12:45:57;;;;;;;3.75;3.40;;;6.50;95.90;;;;;;5054445;28;20255;-35
2020/12/03 12:48:27;;;;;;;4.05;3.70;;;6.50;96.00;;;;;;5080579;28;20204;-32
2020/12/03 12:50:57;;;;;;;4.60;3.90;;;6.40;96.10;;;;;;5078338;28;20273;-34
2020/12/03 12:53:31;;;;;;;4.80;3.75;;;6.40;96.30;;;;;;5068764;28;20684;-32
2020/12/03 12:56:01;;;;;;;4.30;3.90;;;6.30;96.40;;;;;;5077100;28;20196;-33
2020/12/03 12:58:33;;;;;;;4.68;3.88;;;6.30;96.60;;;;;;5081883;28;20278;-32
2020/12/03 13:01:03;;;;;;;4.53;4.13;;;6.30;97.10;;;;;;5080385;28;20264;-35
2020/12/03 13:03:33;;;;;;;4.03;3.63;;;6.20;97.20;;;;;;5070283;28;20223;-34
2020/12/03 13:06:03;;;;;;;4.18;3.85;;;6.20;97.50;;;;;;5084651;28;20197;-32
2020/12/03 13:08:33;;;;;;;4.70;4.25;;;6.20;97.70;;;;;;5083713;28;20193;-33
2020/12/03 13:11:04;;;;;;;4.57;4.18;;;6.20;97.50;;;;;;5068838;28;20186;-33
2020/12/03 13:13:35;;;;;;;4.68;4.20;;;6.10;97.40;;;;;;5079852;28;20262;-32
2020/12/03 13:16:05;;;;;;;4.43;4.00;;;6.20;97.70;;;;;;5086075;28;20243;-32
2020/12/03 13:18:35;;;;;;;5.53;5.03;;;6.10;97.60;;;;;;5082965;28;20334;-30
2020/12/03 13:21:05;;;;;;;4.22;3.83;;;6.10;98.00;;;;;;5060192;28;20282;-32
2020/12/03 13:23:36;;;;;;;5.50;4.47;;;6.10;97.60;;;;;;5076694;28;20204;-30
2020/12/03 13:26:06;;;;;;;4.55;4.15;;;6.00;98.10;;;;;;5078391;28;20253;-31
2020/12/03 13:28:37;;;;;;;4.50;4.10;;;6.00;98.00;;;;;;5072541;28;20442;-31
2020/12/03 13:31:07;;;;;;;4.50;4.10;;;6.00;98.00;;;;;;5084125;28;20193;-29
2020/12/03 13:33:37;;;;;;;4.38;3.75;;;6.10;97.70;;;;;;5074721;28;20200;-32
2020/12/03 13:36:08;;;;;;;5.07;4.28;;;6.10;97.80;;;;;;5076726;28;20296;-33
2020/12/03 13:38:38;;;;;;;4.72;4.13;;;6.10;97.90;;;;;;5071814;28;20286;-34
2020/12/03 13:41:08;;;;;;;5.35;4.35;;;6.10;97.80;;;;;;5079542;28;20239;-31
2020/12/03 13:43:41;;;;;;;5.00;4.55;;;6.10;98.10;;;;;;5083521;28;20236;-29
2020/12/03 13:46:11;;;;;;;6.40;4.70;;;6.00;98.40;;;;;;5090476;28;20644;-28
2020/12/03 13:48:44;;;;;;;4.30;3.90;;;6.00;98.40;;;;;;5076998;28;20181;-29